Tropical Cyclones
[Index]
Main Index Home Page Stock Weather Photos Extreme Storms Discussion Storm News and Storm Chasing Reports Tropical Cyclones / Hurricanes / Typhoons Weather Data and Links Wild Fires / Bushfires Weather Observation Techniques Weather Picture Catalogue Tornado Pictures and Reports Stock Video Footage and DVDs for sale
Season 1988-1989 Tropical Cyclone ORSON Track Map
Season 1988-1989 Summaries: [BoM-AU] [JTWC-AU] [JTWC-SIO] [JTWC-SPAC] [JTWC-SH]
<<- Previous TC | JTWC 1988-1989 Season | Next TC ->>

click for intensity scale information  Lat/long Grid: Show Hide

 Date Labels: Show Hide

Joint Typhoon Warning Centre Cyclone Data

Name: ORSON

16 Apr 1989 06:00 UTC to 23 Apr 1989 12:00 UTC

    date/time    lat    long     hPa   cat  kts
1989-04-16 06   10.6   127.6                  20          
1989-04-16 12   11.1   127.5                  20          
1989-04-16 18   11.7   127.3                  25          
1989-04-17 00   12.1   127.0                  25          
1989-04-17 06   12.5   126.5                  25          
1989-04-17 12   12.7   126.1                  25          
1989-04-17 18   13.0   125.6                  30          
1989-04-18 00   13.1   125.1                  30          
1989-04-18 06   13.1   124.4                  35          
1989-04-18 12   13.1   123.7                  35          
1989-04-18 18   13.0   123.0            1     45          
1989-04-19 00   12.8   122.3            1     50          
1989-04-19 06   12.5   121.6            2     55          
1989-04-19 12   12.3   121.0            2     65          
1989-04-19 18   12.0   120.5            2     70          
1989-04-20 00   12.0   119.9            3     75          
1989-04-20 06   12.0   119.3            3     80          
1989-04-20 12   12.3   118.7            3     85          
1989-04-20 18   12.8   118.1            3     95          
1989-04-21 00   13.4   117.7            4    105          
1989-04-21 06   13.9   117.2            4    110          
1989-04-21 12   14.6   116.8            4    115          
1989-04-21 18   15.5   116.4            4    120          
1989-04-22 00   16.4   116.3            5    125          
1989-04-22 06   17.4   116.2            5    140          
1989-04-22 12   18.6   116.3            5    140          
1989-04-22 18   20.1   116.3            5    125          
1989-04-23 00   22.0   116.6            4    100          
1989-04-23 06   24.1   117.4            3     75          
1989-04-23 12   25.8   119.3            2     55          
Winds are 1-min average.

Tropical cyclone tracks developed by Michael Bath using data from the Joint Typhoon Warning Centre Best Tracks and Google Maps.


[Australian Severe Weather index] [Copyright Notice] [Email Contacts] [Search This Site] [Privacy Policy]
Document: tropical_cyclone_orson.htm Updated: 18 September 2016